Flugplatz Hahn (EDFH)

Hier findest Du alle Informationen zum Flugplatz Hahn (EDFH).

Informationen für Piloten zum Flugplatz Hahn

Hier findest Du alle relevanten Informationen, die Du als Pilot benötigst, um Hahn anzufliegen.

Flugplatz: Hahn ICAO-Code: EDFH
Frequenz Turm: 119,650 Mhz GAFOR Gebiet: 41
Frequenz Ground: 119,650 Mhz Mogas: nein
Platzrunde: - Landegebühr: -
Platzhöhe: - Sunrise: 07:18 Uhr UTC
Pisten: 03/21 - 2.745 m x , ASPH Sunset: 15:31 Uhr UTC

Mitglieder, die in Hahn fliegen

Flugwetter am Flugplatz Hahn

Die METAR Information stammen aus EDFH.

METAR Code:
2019/11/17 20:20
EDFH 172020Z 34009KT 300V010 5000 -DZ BKN003 03/03 Q1003

Temperatur: 3,8 °C Niederschlag: - Wind: 13,0 kt
Temperatur (min.): 2,2 °C Luftdruck: 988 hPa Windrichtung: 260 °
Temperatur (max.): 5,6 °C Luftfeuchtigkeit: 100 % Bewölkung: 4/8

Flugschulen am Flugplatz Hahn

Am Flugplatz Hahn gibt es leider keine Flugschule.

Benachbarte Flugplätze und Flugschulen

Es gibt 19 weitere Flugplätze in einem Umkreis von 50 km um den Flugplatz Hahn.

Jetzt anmelden

Passwort vergessen

Umfrage Archiv

Lasst Ihr Euch bei Überlandflügen von FIS begleiten?

Ja, immer!
44.8 %
Ja, unregelmäßig!
29.9 %
Ja, aber nur selten!
20.7 %
Nein, nie!
4.6 %
Stimmen: 87 | Diskussion
Anzeige: Roland Aircraft
Statistik Alle Mitglieder

Aktuell sind 40 Besucher online, davon 2 Mitglieder und 38 Gäste.


Mitglieder online:
b3nn0  Moskito_Andi 

Anzeige: VFR Sprechfunk Simulator


Anzeige: Pocket FMS